Flight Track Log - Related Links

Times and Time Zones

All times are in EST time to prevent confusion due to time zone crossing. See the EGF2871 flight status page for this flight to view local times or setup timezone preferences in your user account.

Time Position Orientation Groundspeed Altitude Reporting Facility
EST Latitude Longitude Course Direction KTS MPH feet Rate Location/Type
Tue 03:59:23 PM 46.9108 -96.9300 218° Southwest 260 299 5,700  Level Minneapolis Center
Tue 04:00:25 PM 46.8364 -96.9233 176° South 278 320 7,500 1,951 Climbing Minneapolis Center
Tue 04:01:00 PM 46.3721 -96.8000 180° South  Level FlightAware Approximate
Tue 04:01:26 PM 46.7503 -96.9186 178° South 297 342 9,700  Level Minneapolis Center
Tue 04:02:00 PM 46.2631 -96.8000 180° South  Level FlightAware Approximate
Tue 04:02:28 PM 46.6606 -96.9150 178° South 308 354 11,400  Level Minneapolis Center
Tue 04:03:00 PM 46.1507 -96.8000 180° South  Level FlightAware Approximate
Tue 04:03:30 PM 46.5653 -96.9108 178° South 325 374 12,900  Level Minneapolis Center
Tue 04:04:31 PM 46.4667 -96.9067 178° South 338 389 14,400 1,366 Climbing Minneapolis Center
Tue 04:05:33 PM 46.3742 -96.9025 178° South 344 396 15,700 1,355 Climbing Minneapolis Center
Tue 04:06:35 PM 46.2733 -96.8997 179° South 347 399 17,200 1,597 Climbing Minneapolis Center
Tue 04:07:37 PM 46.1686 -96.8942 178° South 351 404 19,000 1,610 Climbing Minneapolis Center
Tue 04:08:38 PM 46.0708 -96.8883 178° South 352 405 20,500 1,415 Climbing Minneapolis Center
Tue 04:09:40 PM 45.9736 -96.8819 177° South 353 406 21,900 1,306 Climbing Minneapolis Center
Tue 04:10:42 PM 45.8769 -96.8789 179° South 349 402 23,200 1,113 Climbing Minneapolis Center
Tue 04:11:44 PM 45.7803 -96.8742 178° South 348 400 24,200 968 Climbing Minneapolis Center
Tue 04:12:46 PM 45.6797 -96.8681 178° South 356 410 25,200 1,065 Climbing Minneapolis Center
Tue 04:13:48 PM 45.5547 -96.8647 179° South 369 425 26,400 1,038 Climbing Minneapolis Center
Tue 04:15:51 PM 45.3464 -96.8553 180° South 376 433 28,400 973 Climbing Minneapolis Center
Tue 04:16:53 PM 45.2408 -96.8511 178° South 378 435 29,400 968 Climbing Minneapolis Center
Tue 04:17:55 PM 45.1356 -96.8453 178° South 379 436 30,400 968 Climbing Minneapolis Center
Tue 04:18:57 PM 45.0303 -96.8406 178° South 380 437 31,400 1,113 Climbing Minneapolis Center
Tue 04:19:59 PM 44.9017 -96.8350 178° South 383 441 32,700 1,065 Climbing Minneapolis Center
Tue 04:21:01 PM 44.7975 -96.8306 178° South 380 437 33,600 919 Climbing Minneapolis Center
Tue 04:22:03 PM 44.6936 -96.8250 178° South 377 434 34,600 968 Climbing Minneapolis Center
Tue 04:23:05 PM 44.5900 -96.8217 179° South 375 432 35,600 919 Climbing Minneapolis Center
Tue 04:24:07 PM 44.4906 -96.8181 179° South 363 418 36,500 677 Climbing Minneapolis Center
Tue 04:25:09 PM 44.3953 -96.8128 178° South 350 403 37,000 242 Climbing Minneapolis Center
Tue 04:26:11 PM 44.2783 -96.8069 178° South 351 404 37,000  Level Minneapolis Center
Tue 04:27:13 PM 44.1764 -96.8022 178° South 362 417 37,000  Level Minneapolis Center
Tue 04:28:15 PM 44.0708 -96.7986 179° South 378 435 37,000  Level Minneapolis Center
Tue 04:29:17 PM 43.9600 -96.7939 178° South 396 456 37,000  Level Minneapolis Center
Tue 04:30:19 PM 43.8472 -96.7883 178° South 405 466 37,000  Level Minneapolis Center
Tue 04:31:21 PM 43.7064 -96.7814 178° South 419 482 37,000  Level Minneapolis Center
Tue 04:32:23 PM 43.5856 -96.7778 179° South 431 496 37,000  Level Minneapolis Center
Tue 04:33:25 PM 43.4622 -96.7794 181° South 440 506 37,000  Level Minneapolis Center
Tue 04:34:27 PM 43.3372 -96.7786 180° South 448 516 37,000  Level Minneapolis Center
Tue 04:35:29 PM 43.2100 -96.7778 180° South 455 524 37,000  Level Minneapolis Center
Tue 04:36:32 PM 43.0561 -96.7769 180° South 461 531 37,000  Level Minneapolis Center
Tue 04:37:34 PM 42.9303 -96.7761 180° South 456 525 37,000  Level Minneapolis Center
Tue 04:38:36 PM 42.8056 -96.7753 180° South 450 518 37,000  Level Minneapolis Center
Tue 04:39:38 PM 42.6731 -96.7753 180° South 448 516 37,000  Level Minneapolis Center
Tue 04:40:40 PM 42.5497 -96.7744 180° South 444 511 37,000  Level Minneapolis Center
Tue 04:41:42 PM 42.4269 -96.7719 179° South 443 510 37,000  Level Minneapolis Center
Tue 04:42:44 PM 42.3042 -96.7742 181° South 442 509 37,000  Level Minneapolis Center
Tue 04:43:46 PM 42.1842 -96.7944 187° South 436 502 37,000  Level Minneapolis Center
Tue 04:44:48 PM 42.0403 -96.8119 185° South 435 501 37,000  Level Minneapolis Center
Tue 04:45:51 PM 41.9192 -96.8283 186° South 435 501 37,000  Level Minneapolis Center
Tue 04:46:53 PM 41.7969 -96.8444 186° South 439 505 37,000  Level Minneapolis Center
Tue 04:47:55 PM 41.6739 -96.8600 185° South 442 509 37,000  Level Minneapolis Center
Tue 04:48:57 PM 41.5500 -96.8764 186° South 446 513 37,000  Level Minneapolis Center
Tue 04:49:58 PM 41.4017 -96.8953 185° South 448 516 37,000  Level Minneapolis Center
Tue 04:51:00 PM 41.2786 -96.9117 186° South 448 516 37,000  Level Minneapolis Center
Tue 04:52:03 PM 41.1542 -96.9272 185° South 450 518 37,000  Level Minneapolis Center
Tue 04:53:05 PM 41.0311 -96.9428 185° South 448 516 37,000  Level Minneapolis Center
Tue 04:54:07 PM 40.9106 -96.9572 185° South 442 509 37,000  Level Minneapolis Center
Tue 04:55:09 PM 40.7944 -96.9719 185° South 430 495 37,000  Level Minneapolis Center
Tue 04:56:11 PM 40.6550 -96.9906 186° South 423 487 37,000  Level Minneapolis Center
Tue 04:57:13 PM 40.5347 -97.0053 185° South 429 494 37,000  Level Minneapolis Center
Tue 04:58:15 PM 40.4131 -97.0211 186° South 436 502 37,000  Level Minneapolis Center
Tue 04:59:18 PM 40.2925 -97.0350 185° South 437 503 37,000  Level Minneapolis Center
Tue 05:00:20 PM 40.1736 -97.0500 186° South 434 499 37,000  Level Minneapolis Center
Tue 05:01:22 PM 40.0331 -97.0678 186° South 426 490 37,000  Level Minneapolis Center
Tue 05:02:24 PM 39.9142 -97.0828 186° South 428 493 37,000  Level Minneapolis Center
Tue 05:03:26 PM 39.7936 -97.0978 185° South 432 497 37,000  Level Minneapolis Center
Tue 05:04:28 PM 39.6731 -97.1125 185° South 434 499 37,000  Level Minneapolis Center
Tue 05:05:30 PM 39.5508 -97.1258 185° South 438 504 37,000  Level Minneapolis Center
Tue 05:06:32 PM 39.4286 -97.1417 186° South 439 505 37,000  Level Minneapolis Center
Tue 05:07:34 PM 39.2839 -97.1606 186° South 437 503 37,000  Level Minneapolis Center
Tue 05:08:36 PM 39.1622 -97.1747 185° South 438 504 37,000  Level Minneapolis Center
Tue 05:09:38 PM 39.0400 -97.1883 185° South 439 505 37,000  Level Minneapolis Center
Tue 05:10:56 PM 38.8794 -97.2075 185° South 440 506 37,000  Level Kansas City Center
Tue 05:12:00 PM 38.7511 -97.2233 185° South 442 509 37,000  Level Kansas City Center
Tue 05:13:02 PM 38.6231 -97.2383 185° South 444 511 37,000  Level Kansas City Center
Tue 05:14:02 PM 38.4939 -97.2542 185° South 447 514 37,000  Level Kansas City Center
Tue 05:15:06 PM 38.3628 -97.2678 185° South 451 519 37,000  Level Kansas City Center
Tue 05:16:07 PM 38.2325 -97.2842 186° South 451 519 37,000  Level Kansas City Center
Tue 05:17:10 PM 38.1039 -97.2994 185° South 447 514 37,000  Level Kansas City Center
Tue 05:18:11 PM 37.9764 -97.3147 185° South 440 506 37,000 -246 Level Kansas City Center
Tue 05:19:12 PM 37.8581 -97.3289 185° South 442 509 36,500 -476 Descending Kansas City Center
Tue 05:20:17 PM 37.7289 -97.3428 185° South 445 512 36,000 -238 Descending Kansas City Center
Tue 05:21:18 PM 37.5997 -97.3594 186° South 446 513 36,000  Level Kansas City Center
Tue 05:22:21 PM 37.4708 -97.3719 184° South 446 513 36,000  Level Kansas City Center
Tue 05:23:22 PM 37.3642 -97.3856 186° South 442 509 36,000  Level Kansas City Center
Tue 05:24:23 PM 37.2150 -97.4036 186° South 446 513 36,000  Level Kansas City Center
Tue 05:25:27 PM 37.0844 -97.4169 185° South 447 514 36,000  Level Kansas City Center
Tue 05:26:27 PM 36.9617 -97.4317 185° South 445 512 36,000  Level Kansas City Center
Tue 05:27:31 PM 36.8364 -97.4453 185° South 451 519 36,000  Level Kansas City Center
Tue 05:28:31 PM 36.7119 -97.4594 185° South 449 517 36,000  Level Kansas City Center
Tue 05:29:35 PM 36.5894 -97.4728 185° South 444 511 36,000  Level Kansas City Center
Tue 05:30:35 PM 36.4658 -97.4881 186° South 445 512 36,000  Level Kansas City Center
Tue 05:31:38 PM 36.3158 -97.5042 185° South 449 517 36,000  Level Kansas City Center
Tue 05:32:39 PM 36.1922 -97.5183 185° South 449 517 36,000  Level Kansas City Center
Tue 05:33:43 PM 36.0672 -97.5322 185° South 449 517 36,000  Level Kansas City Center
Tue 05:34:44 PM 35.9442 -97.5461 185° South 448 516 36,000  Level Kansas City Center
Tue 05:35:48 PM 35.8194 -97.5594 185° South 449 517 36,000  Level Kansas City Center
Tue 05:36:48 PM 35.6953 -97.5722 185° South 451 519 36,000  Level Kansas City Center
Tue 05:37:52 PM 35.5472 -97.5894 185° South 450 518 36,000  Level Kansas City Center
Tue 05:38:54 PM 35.4231 -97.6042 186° South 453 521 36,000  Level Kansas City Center
Tue 05:40:03 PM 35.2722 -97.5997 179° South 468 539 36,000  Level Fort Worth Center
Tue 05:41:05 PM 35.1472 -97.5797 173° South 461 531 36,000  Level Fort Worth Center
Tue 05:42:08 PM 34.9961 -97.5589 174° South 459 528 36,000  Level Fort Worth Center
Tue 05:43:10 PM 34.8700 -97.5408 173° South 458 527 36,000  Level Fort Worth Center
Tue 05:44:12 PM 34.7439 -97.5233 173° South 458 527 36,000 -48 Level Fort Worth Center
Tue 05:45:14 PM 34.6178 -97.5044 173° South 457 526 35,900 -1,403 Descending Fort Worth Center
Tue 05:46:16 PM 34.4950 -97.4875 174° South 447 514 33,100 -3,145 Descending Fort Worth Center
Tue 05:47:18 PM 34.3711 -97.4692 173° South 448 516 29,400 -4,065 Descending Fort Worth Center
Tue 05:48:20 PM 34.2289 -97.5014 191° South 434 499 24,700 -3,339 Descending Fort Worth Center
Tue 05:49:22 PM 34.1147 -97.5542 201° Southwest 434 499 22,500 -2,081 Descending Fort Worth Center
Tue 05:50:24 PM 33.9969 -97.6083 201° Southwest 434 499 20,400 -2,032 Descending Fort Worth Center
Tue 05:51:26 PM 33.8867 -97.6597 201° Southwest 407 468 18,300 -2,081 Descending Fort Worth Center
Tue 05:52:28 PM 33.7872 -97.7058 201° Southwest 367 422 16,100 -1,920 Descending Fort Worth Center
Tue 05:53:31 PM 33.7056 -97.7439 201° Southwest 330 380 14,300 -1,776 Descending Fort Worth Center
Tue 05:54:33 PM 33.6189 -97.7836 201° Southwest 317 365 12,400 -1,597 Descending Fort Worth Center
Tue 05:55:35 PM 33.5281 -97.8039 191° South 324 373 11,000 -1,113 Descending Fort Worth Center
Tue 05:56:37 PM 33.4617 -97.7358 139° Southeast 315 362 10,100 -1,258 Descending Fort Worth Center
Tue 05:57:39 PM 33.3986 -97.6592 135° Southeast 300 345 8,400 -1,630 Descending Fort Worth Center
Tue 05:58:09 PM 33.3667 -97.6167 132° Southeast 297 342 7,600 -1,600 Descending Dallas / Fort Worth TRACON
Tue 05:59:09 PM 33.3167 -97.5333 126° Southeast 291 335 6,000 -1,300 Descending Dallas / Fort Worth TRACON
Tue 06:00:09 PM 33.2833 -97.4667 121° Southeast 272 313 5,000 -500 Descending Dallas / Fort Worth TRACON
Tue 06:01:09 PM 33.2333 -97.4000 132° Southeast 275 316 5,000  Level Dallas / Fort Worth TRACON
Tue 06:02:09 PM 33.2000 -97.3167 116° Southeast 272 313 5,000  Level Dallas / Fort Worth TRACON
Tue 06:03:09 PM 33.1500 -97.2500 132° Southeast 273 314 5,000 -250 Level Dallas / Fort Worth TRACON
Tue 06:04:09 PM 33.1167 -97.1667 116° Southeast 266 306 4,500 -950 Descending Dallas / Fort Worth TRACON
Tue 06:05:09 PM 33.0667 -97.1000 132° Southeast 252 290 3,100 -1,000 Descending Dallas / Fort Worth TRACON
Tue 06:06:09 PM 33.0167 -97.0667 151° Southeast 205 236 2,500 -700 Descending Dallas / Fort Worth TRACON
Tue 06:07:09 PM 32.9833 -97.0500 157° South 136 157 1,700 -714 Descending Dallas / Fort Worth TRACON
Tue 06:08:15 PM 32.9333 -97.0500 180° South 132 152 1,000 -636 Descending Dallas / Fort Worth TRACON

Login

Don't have an account? Register now (free) for customized features, flight alerts, and more!